Time;durP1;ratioP1;P1;durP2;ratioP2;P2;SDS_P1;SDS_P2;PMS_P1;PMS_P2;Temp;Humidity;BMP_temperature;BMP_pressure;BME280_temperature;BME280_humidity;BME280_pressure;Samples;Min_cycle;Max_cycle;Signal;HPM_P1;HPM_P2
2021/01/29 00:02:18;;;;;;;2.47;1.07;;;7.50;99.90;;;;;;4988394;28;20294;-86
2021/01/29 00:04:50;;;;;;;1.70;1.20;;;7.50;99.90;;;;;;4988574;28;20245;-85
2021/01/29 00:07:20;;;;;;;2.30;1.13;;;7.50;99.90;;;;;;4988861;28;20234;-86
2021/01/29 00:09:54;;;;;;;1.00;0.80;;;7.40;99.90;;;;;;4983432;28;20204;-86
2021/01/29 00:12:25;;;;;;;2.00;0.97;;;7.30;99.90;;;;;;4970034;28;20277;-84
2021/01/29 00:14:58;;;;;;;1.77;1.00;;;7.30;99.90;;;;;;4987970;28;20234;-85
2021/01/29 00:17:28;;;;;;;1.07;0.80;;;7.30;99.90;;;;;;4988718;28;20211;-85
2021/01/29 00:19:59;;;;;;;1.87;0.83;;;7.30;99.90;;;;;;4986553;28;20233;-86
2021/01/29 00:22:30;;;;;;;0.60;0.60;;;7.30;99.90;;;;;;4985057;28;20299;-86
2021/01/29 00:25:05;;;;;;;1.30;0.90;;;7.30;99.90;;;;;;4972912;28;20218;-85
2021/01/29 00:27:37;;;;;;;1.20;1.10;;;7.20;99.90;;;;;;4993021;28;20208;-85
2021/01/29 00:30:09;;;;;;;1.40;1.07;;;7.20;99.90;;;;;;4992479;28;20254;-83
2021/01/29 00:32:40;;;;;;;1.00;0.87;;;7.10;99.90;;;;;;4992351;28;20732;-84
2021/01/29 00:35:12;;;;;;;1.50;1.13;;;7.00;99.90;;;;;;4993481;28;20238;-84
2021/01/29 00:37:43;;;;;;;4.07;1.40;;;6.90;99.90;;;;;;4991243;28;20195;-84
2021/01/29 00:40:16;;;;;;;1.33;1.23;;;6.90;99.90;;;;;;4991213;28;20275;-83
2021/01/29 00:42:47;;;;;;;1.53;0.90;;;6.80;99.90;;;;;;4992716;28;20222;-85
2021/01/29 00:45:22;;;;;;;1.40;1.10;;;6.80;99.90;;;;;;4991207;28;20334;-84
2021/01/29 00:47:53;;;;;;;1.77;1.10;;;6.50;99.90;;;;;;4987605;28;20227;-85
2021/01/29 00:50:27;;;;;;;1.50;1.37;;;6.40;99.90;;;;;;4989720;28;20218;-84
2021/01/29 00:53:01;;;;;;;1.83;1.27;;;6.40;99.90;;;;;;4991117;28;20203;-84
2021/01/29 00:55:35;;;;;;;1.37;1.00;;;6.40;99.90;;;;;;4970463;28;20235;-82
2021/01/29 00:58:06;;;;;;;1.90;1.43;;;6.50;99.90;;;;;;4983236;28;20224;-83
2021/01/29 01:00:37;;;;;;;1.57;1.30;;;6.50;99.90;;;;;;4989273;28;20218;-86
2021/01/29 01:03:08;;;;;;;2.37;1.23;;;6.50;99.90;;;;;;4982142;28;20203;-84
2021/01/29 01:05:42;;;;;;;1.67;1.27;;;6.50;99.90;;;;;;4979242;28;20207;-83
2021/01/29 01:08:13;;;;;;;3.47;1.60;;;6.40;99.90;;;;;;4984075;28;20209;-83
2021/01/29 01:10:46;;;;;;;2.43;1.60;;;6.40;99.90;;;;;;4969614;29;20205;-84
2021/01/29 01:13:18;;;;;;;3.47;1.80;;;6.40;99.90;;;;;;4984853;28;20223;-84
2021/01/29 01:15:48;;;;;;;1.57;1.10;;;6.40;99.90;;;;;;4987361;28;20251;-84
2021/01/29 01:18:20;;;;;;;2.80;1.30;;;6.40;99.90;;;;;;4988358;28;20202;-84
2021/01/29 01:20:51;;;;;;;2.43;1.60;;;6.40;99.90;;;;;;4983864;28;20210;-85
2021/01/29 01:23:26;;;;;;;2.20;1.30;;;6.30;99.90;;;;;;4971454;28;20215;-85
2021/01/29 01:25:59;;;;;;;2.10;1.60;;;6.30;99.90;;;;;;4976315;28;20203;-84
2021/01/29 01:28:29;;;;;;;2.40;1.60;;;6.20;99.90;;;;;;4975454;28;20192;-85
2021/01/29 01:31:00;;;;;;;1.80;1.60;;;6.10;99.90;;;;;;4993818;28;20306;-84
2021/01/29 01:33:32;;;;;;;1.57;1.43;;;6.00;99.90;;;;;;4980195;28;20197;-82
2021/01/29 01:36:05;;;;;;;1.53;1.40;;;5.90;99.90;;;;;;4995056;28;20237;-82
2021/01/29 01:38:36;;;;;;;4.63;3.27;;;5.90;99.90;;;;;;4979983;28;20256;-82
2021/01/29 01:41:10;;;;;;;3.30;2.63;;;5.70;99.90;;;;;;4969179;29;20299;-84
2021/01/29 01:43:41;;;;;;;3.13;2.37;;;5.70;99.90;;;;;;4972388;29;20210;-83
2021/01/29 01:46:13;;;;;;;4.20;3.50;;;5.60;99.90;;;;;;4962425;28;20672;-84
2021/01/29 01:48:53;;;;;;;2.63;2.23;;;5.60;99.90;;;;;;4979616;28;20613;-84
2021/01/29 01:51:34;;;;;;;3.93;2.10;;;5.50;99.90;;;;;;4974338;28;20207;-83
2021/01/29 01:54:11;;;;;;;2.50;1.70;;;5.50;99.90;;;;;;4965860;28;20243;-84
2021/01/29 01:56:48;;;;;;;2.53;1.50;;;5.50;99.90;;;;;;4971915;28;20275;-83
2021/01/29 01:59:22;;;;;;;3.37;2.10;;;5.60;99.90;;;;;;4984167;28;20279;-84
2021/01/29 02:01:55;;;;;;;4.13;2.50;;;5.60;99.90;;;;;;4981229;28;20770;-86
2021/01/29 02:04:31;;;;;;;2.50;2.10;;;5.60;99.90;;;;;;4984388;28;20222;-85
2021/01/29 02:07:09;;;;;;;2.10;1.70;;;5.70;99.90;;;;;;4967907;28;20195;-85
2021/01/29 02:09:44;;;;;;;1.93;1.63;;;5.70;99.90;;;;;;4985074;28;20206;-85
2021/01/29 02:12:17;;;;;;;2.87;1.73;;;5.80;99.90;;;;;;4984252;28;20202;-85
2021/01/29 02:14:48;;;;;;;2.10;1.60;;;5.80;99.90;;;;;;4968722;28;20250;-85
2021/01/29 02:17:36;;;;;;;2.00;1.67;;;5.80;99.90;;;;;;4962271;29;20581;-83
2021/01/29 02:20:51;;;;;;;2.20;1.60;;;5.80;99.90;;;;;;4972592;29;20210;-89
2021/01/29 02:23:50;;;;;;;2.67;1.80;;;5.80;99.90;;;;;;4979471;28;20221;-89
2021/01/29 02:26:58;;;;;;;2.63;2.00;;;5.90;99.90;;;;;;4941910;29;20323;-86
2021/01/29 02:30:03;;;;;;;3.13;1.80;;;5.90;99.90;;;;;;4973774;29;20338;-88
2021/01/29 02:33:12;;;;;;;3.27;2.07;;;5.90;99.90;;;;;;4972259;28;20211;-89
2021/01/29 02:39:01;;;;;;;5.47;3.27;;;5.90;99.90;;;;;;5379836;23;20236;-87
2021/01/29 02:41:56;;;;;;;2.00;1.80;;;5.90;99.90;;;;;;4972482;28;20234;-89
2021/01/29 02:44:46;;;;;;;2.73;2.40;;;5.90;99.90;;;;;;4993724;28;20206;-88
2021/01/29 02:47:25;;;;;;;3.73;2.37;;;5.90;99.90;;;;;;4991098;28;20238;-89
2021/01/29 02:50:17;;;;;;;2.87;2.13;;;5.90;99.90;;;;;;4992928;28;20187;-88
2021/01/29 02:52:58;;;;;;;2.50;1.90;;;5.90;99.90;;;;;;4994934;28;20223;-87
2021/01/29 02:55:34;;;;;;;1.83;1.40;;;5.90;99.90;;;;;;4993116;28;20293;-88
2021/01/29 02:58:14;;;;;;;2.57;1.43;;;5.80;99.90;;;;;;4986732;28;20193;-88
2021/01/29 03:00:50;;;;;;;3.50;1.70;;;5.70;99.90;;;;;;4979161;28;20195;-89
2021/01/29 03:03:23;;;;;;;2.30;1.40;;;5.60;99.90;;;;;;4993650;28;20195;-88
2021/01/29 03:05:58;;;;;;;3.53;0.97;;;5.50;99.90;;;;;;4991629;28;20209;-88
2021/01/29 03:08:32;;;;;;;1.77;1.17;;;5.50;99.90;;;;;;4991501;28;20209;-87
2021/01/29 03:11:08;;;;;;;1.50;1.40;;;5.50;99.90;;;;;;4993354;28;20222;-89
2021/01/29 03:13:45;;;;;;;2.07;1.67;;;5.50;99.90;;;;;;4995027;28;20197;-89
2021/01/29 03:19:07;;;;;;;2.00;1.67;;;5.50;99.90;;;;;;5323809;23;20734;-86
2021/01/29 03:21:42;;;;;;;2.77;2.00;;;5.40;99.90;;;;;;4989826;28;20270;-89
2021/01/29 03:24:21;;;;;;;3.80;3.17;;;5.30;99.90;;;;;;4988595;28;20240;-88
2021/01/29 03:26:55;;;;;;;3.50;2.83;;;5.20;99.90;;;;;;4985156;28;20198;-88
2021/01/29 03:29:35;;;;;;;4.07;3.37;;;5.20;99.90;;;;;;4990267;28;20202;-89
2021/01/29 03:32:08;;;;;;;4.53;3.50;;;5.30;99.90;;;;;;4990227;28;20198;-89
2021/01/29 03:34:46;;;;;;;5.10;4.20;;;5.10;99.90;;;;;;4991236;28;20211;-88
2021/01/29 03:37:25;;;;;;;4.87;4.00;;;5.20;99.90;;;;;;4994036;28;20257;-87
2021/01/29 03:39:58;;;;;;;4.53;3.50;;;5.10;99.90;;;;;;4962550;28;20230;-91
2021/01/29 03:42:36;;;;;;;3.77;3.10;;;5.10;99.90;;;;;;4997830;28;20214;-87
2021/01/29 03:45:21;;;;;;;3.07;2.70;;;5.10;99.90;;;;;;4998611;28;20201;-87
2021/01/29 03:47:59;;;;;;;5.93;2.57;;;5.10;99.90;;;;;;4980238;28;20246;-88
2021/01/29 03:50:43;;;;;;;2.30;2.10;;;5.10;99.90;;;;;;4978190;28;20198;-89
2021/01/29 03:53:29;;;;;;;3.17;2.23;;;5.10;99.90;;;;;;4998495;28;20195;-89
2021/01/29 03:56:10;;;;;;;2.80;2.03;;;5.10;99.90;;;;;;4999139;28;20218;-89
2021/01/29 03:58:58;;;;;;;5.73;3.23;;;5.10;99.90;;;;;;5026991;23;20243;-89
2021/01/29 04:01:43;;;;;;;4.83;2.70;;;5.20;99.90;;;;;;4978321;28;20216;-87
2021/01/29 04:04:29;;;;;;;3.23;2.90;;;5.20;99.90;;;;;;4982625;28;20197;-88
2021/01/29 04:07:13;;;;;;;4.50;2.67;;;5.20;99.90;;;;;;4982060;28;20226;-89
2021/01/29 04:09:55;;;;;;;4.73;3.27;;;5.10;99.90;;;;;;4968064;28;20208;-88
2021/01/29 04:12:37;;;;;;;4.80;2.93;;;5.20;99.90;;;;;;4983081;28;20213;-88
2021/01/29 04:15:14;;;;;;;4.30;2.80;;;5.20;99.90;;;;;;4625017;28;10000064;-89
2021/01/29 04:17:50;;;;;;;3.27;2.70;;;5.20;99.90;;;;;;4973185;28;20187;-89
2021/01/29 04:20:27;;;;;;;4.93;3.00;;;5.20;99.90;;;;;;4973575;28;20207;-89
2021/01/29 04:23:01;;;;;;;6.10;3.37;;;5.20;99.90;;;;;;4974106;29;20188;-88
2021/01/29 04:25:36;;;;;;;5.60;3.50;;;5.30;99.90;;;;;;4979273;28;20207;-89
2021/01/29 04:28:11;;;;;;;3.77;3.00;;;5.30;99.90;;;;;;4955052;28;20246;-89
2021/01/29 04:30:46;;;;;;;3.20;2.80;;;5.40;99.90;;;;;;4968759;29;20199;-89
2021/01/29 04:33:23;;;;;;;3.93;2.90;;;5.30;99.90;;;;;;4966595;28;20194;-90
2021/01/29 04:35:55;;;;;;;5.90;2.97;;;5.30;99.90;;;;;;4964299;29;20257;-88
2021/01/29 04:38:33;;;;;;;4.47;3.20;;;5.30;99.90;;;;;;4958021;29;20523;-88
2021/01/29 04:41:18;;;;;;;4.53;3.20;;;5.30;99.90;;;;;;4956704;29;20200;-87
2021/01/29 04:44:35;;;;;;;4.60;3.40;;;5.40;99.90;;;;;;4967566;28;20222;-87
2021/01/29 04:47:15;;;;;;;5.67;4.07;;;5.40;99.90;;;;;;4955698;29;20223;-88
2021/01/29 04:50:11;;;;;;;7.00;4.50;;;5.40;99.90;;;;;;4963546;29;20631;-88
2021/01/29 04:53:02;;;;;;;7.03;4.53;;;5.40;99.90;;;;;;4965035;28;20215;-88
2021/01/29 04:56:13;;;;;;;6.07;4.90;;;5.50;99.90;;;;;;4959513;28;20668;-88
2021/01/29 04:59:12;;;;;;;6.23;4.93;;;5.50;99.90;;;;;;4958179;29;20205;-88
2021/01/29 05:01:54;;;;;;;5.80;4.60;;;5.60;99.90;;;;;;4909923;29;20686;-87
2021/01/29 05:04:52;;;;;;;5.63;4.80;;;5.50;99.90;;;;;;4957525;29;20218;-88
2021/01/29 05:07:50;;;;;;;6.00;5.10;;;5.50;99.90;;;;;;4959183;29;20211;-89
2021/01/29 05:10:47;;;;;;;5.93;4.70;;;5.50;99.90;;;;;;4960324;28;20203;-90
2021/01/29 05:13:48;;;;;;;7.17;4.80;;;5.50;99.90;;;;;;4957752;28;20574;-88
2021/01/29 05:16:57;;;;;;;5.43;4.40;;;5.50;99.90;;;;;;4952542;29;20243;-89
2021/01/29 05:20:00;;;;;;;7.70;5.47;;;5.60;99.90;;;;;;4971197;28;20204;-90
2021/01/29 05:22:45;;;;;;;7.93;6.20;;;5.50;99.90;;;;;;4910658;29;20208;-89
2021/01/29 05:25:47;;;;;;;11.00;7.13;;;5.60;99.90;;;;;;4959211;28;20258;-89
2021/01/29 05:28:46;;;;;;;6.77;5.93;;;5.50;99.90;;;;;;4942044;29;20214;-90
2021/01/29 05:31:46;;;;;;;7.87;5.80;;;5.50;99.90;;;;;;4965035;28;20278;-89
2021/01/29 05:34:37;;;;;;;9.07;5.63;;;5.50;99.90;;;;;;4936054;29;20213;-89
2021/01/29 05:37:33;;;;;;;7.80;5.57;;;5.60;99.90;;;;;;4960183;28;20326;-88
2021/01/29 05:40:18;;;;;;;6.57;5.03;;;5.60;99.90;;;;;;4924457;28;20230;-88
2021/01/29 05:43:08;;;;;;;7.33;4.30;;;5.60;99.90;;;;;;4957937;28;20262;-89
2021/01/29 05:45:57;;;;;;;7.90;5.33;;;5.60;99.90;;;;;;4941262;29;20637;-90
2021/01/29 05:48:51;;;;;;;6.77;4.80;;;5.60;99.90;;;;;;4956994;28;20262;-89
2021/01/29 05:51:45;;;;;;;6.00;4.60;;;5.60;99.90;;;;;;4954892;29;20247;-89
2021/01/29 05:54:45;;;;;;;7.20;4.87;;;5.60;99.90;;;;;;4962758;28;20204;-89
2021/01/29 05:58:00;;;;;;;7.27;4.90;;;5.60;99.90;;;;;;4937454;29;20314;-89
2021/01/29 06:00:55;;;;;;;6.30;5.03;;;5.70;99.90;;;;;;4965447;29;20274;-88
2021/01/29 06:04:05;;;;;;;7.57;6.20;;;5.70;99.90;;;;;;4966760;29;20266;-89
2021/01/29 06:07:07;;;;;;;11.47;8.70;;;5.70;99.90;;;;;;4974956;29;20199;-90
2021/01/29 06:10:14;;;;;;;13.27;7.67;;;5.70;99.90;;;;;;4973439;29;20213;-89
2021/01/29 06:13:29;;;;;;;7.23;5.17;;;5.60;99.90;;;;;;4933108;28;20257;-89
2021/01/29 06:16:40;;;;;;;6.37;4.50;;;5.60;99.90;;;;;;4967048;28;20238;-90
2021/01/29 06:19:35;;;;;;;5.70;4.80;;;5.70;99.90;;;;;;4973179;28;20238;-89
2021/01/29 06:22:27;;;;;;;8.37;5.03;;;5.60;99.90;;;;;;4963550;28;20728;-89
2021/01/29 06:25:29;;;;;;;11.43;7.53;;;5.60;99.90;;;;;;4977478;28;20206;-90
2021/01/29 06:28:35;;;;;;;7.97;6.33;;;5.50;99.90;;;;;;4963227;28;20207;-91
2021/01/29 06:31:42;;;;;;;8.03;6.20;;;5.50;99.90;;;;;;4976847;28;20632;-89
2021/01/29 06:34:27;;;;;;;5.20;4.67;;;5.40;99.90;;;;;;4964400;28;20221;-89
2021/01/29 06:37:10;;;;;;;6.57;4.70;;;5.40;99.90;;;;;;4963133;28;20234;-89
2021/01/29 06:39:56;;;;;;;10.87;7.67;;;5.50;99.90;;;;;;4972923;28;20231;-88
2021/01/29 06:43:12;;;;;;;13.50;9.27;;;5.50;99.90;;;;;;4963993;28;20632;-89
2021/01/29 06:46:14;;;;;;;11.87;8.10;;;5.50;99.90;;;;;;4964477;28;20346;-89
2021/01/29 06:49:14;;;;;;;7.53;4.93;;;5.50;99.90;;;;;;4954280;28;20281;-89
2021/01/29 06:52:47;;;;;;;5.37;4.13;;;5.50;99.90;;;;;;4956016;28;20207;-88
2021/01/29 06:55:53;;;;;;;7.27;5.77;;;5.40;99.90;;;;;;4886849;29;20246;-88
2021/01/29 06:58:55;;;;;;;6.23;4.73;;;5.50;99.90;;;;;;4875123;29;20215;-88
2021/01/29 07:02:00;;;;;;;5.13;4.30;;;5.50;99.90;;;;;;4944826;28;20204;-89
2021/01/29 07:05:03;;;;;;;4.73;3.77;;;5.50;99.90;;;;;;4914855;28;20295;-89
2021/01/29 07:08:02;;;;;;;9.10;7.00;;;5.50;99.90;;;;;;4975623;28;20211;-89
2021/01/29 07:10:59;;;;;;;24.00;13.13;;;5.40;99.90;;;;;;4954648;28;20581;-90
2021/01/29 07:14:09;;;;;;;16.57;10.27;;;5.40;99.90;;;;;;4963868;28;20203;-89
2021/01/29 07:17:06;;;;;;;11.40;7.53;;;5.30;99.90;;;;;;4896820;29;20241;-90
2021/01/29 07:20:19;;;;;;;6.60;5.00;;;5.40;99.90;;;;;;4983967;28;20301;-90
2021/01/29 07:23:21;;;;;;;5.87;4.20;;;5.40;99.90;;;;;;4923136;28;20211;-90
2021/01/29 07:26:07;;;;;;;6.00;4.57;;;5.40;99.90;;;;;;4962882;28;20282;-89
2021/01/29 07:28:53;;;;;;;6.40;4.67;;;5.40;99.90;;;;;;4966191;28;20210;-89
2021/01/29 07:31:53;;;;;;;5.67;4.67;;;5.40;99.90;;;;;;4951372;28;20195;-90
2021/01/29 07:34:39;;;;;;;5.27;4.63;;;5.40;99.90;;;;;;4939393;28;20289;-90
2021/01/29 07:37:57;;;;;;;6.20;4.67;;;5.40;99.90;;;;;;4942195;28;20641;-89
2021/01/29 07:40:58;;;;;;;9.43;5.70;;;5.40;99.90;;;;;;4970165;28;20200;-88
2021/01/29 07:43:47;;;;;;;8.27;5.80;;;5.30;99.90;;;;;;4935260;29;20218;-88
2021/01/29 07:46:44;;;;;;;9.10;5.73;;;5.30;99.90;;;;;;4959328;29;20520;-88
2021/01/29 07:49:39;;;;;;;9.37;6.37;;;5.30;99.90;;;;;;4939225;28;20215;-88
2021/01/29 07:52:25;;;;;;;9.40;4.70;;;5.30;99.90;;;;;;4967104;28;20208;-88
2021/01/29 07:55:03;;;;;;;8.27;5.93;;;5.30;99.90;;;;;;4948669;28;20298;-89
2021/01/29 07:58:18;;;;;;;10.90;7.47;;;5.30;99.90;;;;;;4962763;28;20246;-90
2021/01/29 08:01:12;;;;;;;9.57;6.87;;;5.30;99.90;;;;;;4925001;28;20227;-90
2021/01/29 08:04:31;;;;;;;9.67;6.10;;;5.20;99.90;;;;;;4974176;28;20218;-91
2021/01/29 08:07:14;;;;;;;8.17;6.10;;;5.20;99.90;;;;;;4936851;28;20206;-89
2021/01/29 08:09:52;;;;;;;10.90;6.30;;;5.20;99.90;;;;;;4940119;29;20292;-89
2021/01/29 08:12:31;;;;;;;8.60;6.70;;;5.20;99.90;;;;;;4967293;28;20207;-91
2021/01/29 08:15:30;;;;;;;9.07;6.30;;;5.30;99.90;;;;;;4947377;29;20208;-90
2021/01/29 08:18:41;;;;;;;8.67;5.90;;;5.30;99.90;;;;;;4973972;29;20224;-88
2021/01/29 08:22:00;;;;;;;7.30;6.40;;;5.40;99.90;;;;;;4987390;28;20207;-89
2021/01/29 08:24:55;;;;;;;7.53;5.63;;;5.40;99.90;;;;;;4967879;28;20216;-89
2021/01/29 08:28:01;;;;;;;7.97;6.07;;;5.40;99.90;;;;;;4947263;28;20211;-89
2021/01/29 08:31:06;;;;;;;7.63;5.73;;;5.40;99.90;;;;;;4957533;29;20211;-89
2021/01/29 08:33:59;;;;;;;7.77;5.80;;;5.50;99.90;;;;;;4939480;29;20216;-90
2021/01/29 08:36:58;;;;;;;7.27;6.10;;;5.50;99.90;;;;;;4934572;29;20228;-89
2021/01/29 08:39:33;;;;;;;9.07;5.93;;;5.50;99.90;;;;;;4934197;29;20683;-89
2021/01/29 08:42:15;;;;;;;7.20;6.00;;;5.50;99.90;;;;;;4967893;29;20199;-89
2021/01/29 08:45:17;;;;;;;9.17;6.67;;;5.50;99.90;;;;;;4947406;28;20220;-88
2021/01/29 08:48:09;;;;;;;9.97;6.50;;;5.50;99.90;;;;;;4927500;29;20215;-88
2021/01/29 08:50:55;;;;;;;9.37;7.23;;;5.50;99.90;;;;;;4951911;28;20219;-88
2021/01/29 08:53:58;;;;;;;7.83;6.30;;;5.50;99.90;;;;;;4960597;28;20219;-90
2021/01/29 08:56:40;;;;;;;8.77;6.77;;;5.50;99.90;;;;;;4952803;28;20330;-91
2021/01/29 08:59:15;;;;;;;8.80;7.00;;;5.50;99.90;;;;;;4956365;29;20223;-90
2021/01/29 09:01:50;;;;;;;8.83;6.53;;;5.40;99.90;;;;;;4959047;28;20905;-90
2021/01/29 09:04:31;;;;;;;9.37;7.30;;;5.40;99.90;;;;;;4968363;28;20207;-90
2021/01/29 09:07:07;;;;;;;9.67;7.67;;;5.50;99.90;;;;;;4983352;28;20278;-91
2021/01/29 09:09:40;;;;;;;9.53;7.40;;;5.50;99.90;;;;;;4973328;28;20200;-88
2021/01/29 09:12:17;;;;;;;10.87;9.50;;;5.50;99.90;;;;;;4973880;28;20230;-89
2021/01/29 09:14:58;;;;;;;11.43;8.63;;;5.50;99.90;;;;;;4959728;28;20266;-89
2021/01/29 09:17:35;;;;;;;10.17;8.70;;;5.50;99.90;;;;;;4961211;28;20231;-88
2021/01/29 09:20:09;;;;;;;11.53;9.50;;;5.50;99.90;;;;;;4962968;28;20294;-89
2021/01/29 09:22:46;;;;;;;10.83;8.67;;;5.50;99.90;;;;;;4970080;28;20843;-88
2021/01/29 09:25:22;;;;;;;12.37;10.33;;;5.50;99.90;;;;;;4946256;28;20219;-90
2021/01/29 09:28:05;;;;;;;14.00;10.60;;;5.50;99.90;;;;;;4958562;29;20211;-91
2021/01/29 09:30:41;;;;;;;14.30;11.93;;;5.50;99.90;;;;;;4957472;29;20200;-91
2021/01/29 09:33:19;;;;;;;15.00;11.60;;;5.50;99.90;;;;;;4959134;29;20295;-90
2021/01/29 09:35:56;;;;;;;14.87;12.83;;;5.50;99.90;;;;;;4971151;28;20659;-90
2021/01/29 09:38:30;;;;;;;22.23;15.33;;;5.40;99.90;;;;;;4939508;29;20216;-89
2021/01/29 09:41:14;;;;;;;25.27;11.93;;;5.40;99.90;;;;;;4950460;29;20310;-90
2021/01/29 09:44:03;;;;;;;15.03;11.67;;;5.40;99.90;;;;;;4954338;29;20204;-90
2021/01/29 09:46:38;;;;;;;17.30;11.23;;;5.50;99.90;;;;;;4958375;28;20215;-89
2021/01/29 09:49:11;;;;;;;13.17;10.03;;;5.40;99.90;;;;;;4960979;28;20265;-89
2021/01/29 09:51:59;;;;;;;13.97;9.37;;;5.50;99.90;;;;;;4954661;28;20262;-89
2021/01/29 09:54:40;;;;;;;15.83;10.43;;;5.40;99.90;;;;;;4937631;28;20421;-89
2021/01/29 09:57:19;;;;;;;11.20;9.70;;;5.40;99.90;;;;;;4956200;29;20298;-89
2021/01/29 10:00:02;;;;;;;12.43;9.83;;;5.40;99.90;;;;;;4942296;28;20220;-88
2021/01/29 10:02:45;;;;;;;15.70;10.87;;;5.30;99.90;;;;;;4939495;29;20850;-89
2021/01/29 10:05:37;;;;;;;16.60;10.77;;;5.30;99.90;;;;;;4956269;29;20305;-88
2021/01/29 10:08:12;;;;;;;17.07;11.57;;;5.30;99.90;;;;;;4955108;29;20677;-89
2021/01/29 10:11:01;;;;;;;18.57;11.80;;;5.30;99.90;;;;;;4950204;29;20204;-89
2021/01/29 10:13:54;;;;;;;16.03;11.33;;;5.20;99.90;;;;;;4956141;28;20219;-88
2021/01/29 10:16:37;;;;;;;27.17;11.43;;;5.20;99.90;;;;;;4964092;28;20310;-89
2021/01/29 10:19:41;;;;;;;19.27;11.57;;;5.20;99.90;;;;;;4957901;28;20246;-89
2021/01/29 10:22:46;;;;;;;20.17;11.63;;;5.30;99.90;;;;;;4908174;29;20232;-90
2021/01/29 10:25:26;;;;;;;26.60;11.03;;;5.30;99.90;;;;;;4943855;29;20251;-89
2021/01/29 10:28:01;;;;;;;16.37;11.00;;;5.30;99.90;;;;;;4956298;29;20188;-89
2021/01/29 10:30:38;;;;;;;17.13;11.30;;;5.30;99.90;;;;;;4977905;28;20251;-89
2021/01/29 10:33:12;;;;;;;27.77;10.20;;;5.30;99.90;;;;;;4968014;29;20207;-89
2021/01/29 10:35:50;;;;;;;21.00;11.30;;;5.30;99.90;;;;;;4965978;29;20215;-89
2021/01/29 10:38:27;;;;;;;15.23;11.13;;;5.20;99.90;;;;;;4937070;29;20612;-88
2021/01/29 10:41:08;;;;;;;14.80;11.07;;;5.20;99.90;;;;;;4942062;29;20553;-89
2021/01/29 10:43:45;;;;;;;16.17;11.40;;;5.20;99.90;;;;;;4939802;29;20219;-89
2021/01/29 10:46:39;;;;;;;18.03;10.47;;;5.20;99.90;;;;;;4937310;29;20212;-89
2021/01/29 10:49:19;;;;;;;12.07;9.33;;;5.20;99.90;;;;;;4931342;29;20270;-89
2021/01/29 10:52:10;;;;;;;22.03;10.60;;;5.20;99.90;;;;;;4945367;28;20218;-88
2021/01/29 10:54:43;;;;;;;18.80;11.70;;;5.10;99.90;;;;;;4975329;28;20318;-89
2021/01/29 10:57:22;;;;;;;33.63;12.40;;;5.00;99.90;;;;;;4945366;28;20497;-88
2021/01/29 10:59:57;;;;;;;16.10;11.50;;;5.00;99.90;;;;;;4935613;29;20212;-90
2021/01/29 11:02:37;;;;;;;19.77;11.27;;;5.00;99.90;;;;;;4937548;29;20211;-89
2021/01/29 11:05:14;;;;;;;20.07;11.63;;;5.10;99.90;;;;;;4938075;29;20200;-88
2021/01/29 11:07:49;;;;;;;16.40;10.67;;;5.00;99.90;;;;;;4936819;29;20212;-88
2021/01/29 11:10:31;;;;;;;17.07;11.27;;;5.00;99.90;;;;;;4939576;29;20224;-89
2021/01/29 11:13:08;;;;;;;14.23;10.73;;;5.10;99.90;;;;;;4940038;29;20200;-88
2021/01/29 11:15:45;;;;;;;28.73;12.00;;;5.10;99.90;;;;;;4940121;29;20227;-88
2021/01/29 11:18:23;;;;;;;19.50;11.07;;;5.20;99.90;;;;;;4941164;29;20621;-89
2021/01/29 11:21:03;;;;;;;27.63;11.23;;;5.10;99.90;;;;;;4938079;29;20240;-88
2021/01/29 11:23:46;;;;;;;39.07;13.13;;;5.20;99.90;;;;;;4944882;29;20208;-89
2021/01/29 11:26:25;;;;;;;32.87;12.30;;;5.10;99.90;;;;;;4924182;29;20216;-89
2021/01/29 11:29:11;;;;;;;21.10;11.70;;;5.10;99.90;;;;;;4960386;28;20270;-88
2021/01/29 11:31:48;;;;;;;26.10;11.83;;;5.10;99.90;;;;;;4978350;23;20672;-90
2021/01/29 11:34:28;;;;;;;30.10;12.33;;;5.20;99.90;;;;;;4959046;29;20230;-90
2021/01/29 11:37:13;;;;;;;41.50;12.73;;;5.20;99.90;;;;;;4958746;29;20235;-90
2021/01/29 11:39:56;;;;;;;50.87;12.47;;;5.20;99.90;;;;;;4960678;28;20692;-88
2021/01/29 11:42:33;;;;;;;30.60;13.43;;;5.10;99.90;;;;;;4974647;28;20203;-87
2021/01/29 11:45:13;;;;;;;32.27;13.13;;;5.00;99.90;;;;;;4966405;28;20727;-89
2021/01/29 11:47:59;;;;;;;29.20;11.70;;;5.00;99.90;;;;;;4959489;29;20216;-89
2021/01/29 11:50:40;;;;;;;24.97;12.93;;;5.00;99.90;;;;;;4973441;28;20217;-89
2021/01/29 11:53:20;;;;;;;20.57;11.67;;;5.00;99.90;;;;;;4961132;28;20211;-88
2021/01/29 11:55:57;;;;;;;32.27;12.83;;;5.00;99.90;;;;;;4987289;28;20218;-89
2021/01/29 11:58:37;;;;;;;30.87;11.83;;;5.00;99.90;;;;;;4979685;28;20297;-90
2021/01/29 12:01:15;;;;;;;23.40;11.57;;;5.10;99.90;;;;;;4957420;29;20242;-88
2021/01/29 12:03:56;;;;;;;17.63;11.33;;;5.10;99.90;;;;;;4959131;29;20203;-89
2021/01/29 12:06:34;;;;;;;18.17;11.00;;;5.10;99.90;;;;;;4961392;28;20214;-88
2021/01/29 12:09:10;;;;;;;20.20;11.40;;;5.10;99.90;;;;;;4979269;28;20199;-89
2021/01/29 12:11:49;;;;;;;16.83;11.27;;;5.20;99.90;;;;;;4991569;28;20553;-88
2021/01/29 12:14:29;;;;;;;17.93;11.17;;;5.10;99.90;;;;;;4980329;28;20584;-89
2021/01/29 12:17:04;;;;;;;17.87;10.50;;;5.10;99.90;;;;;;4631403;28;10000856;-89
2021/01/29 12:19:38;;;;;;;19.03;10.80;;;5.00;99.90;;;;;;4975551;28;20249;-89
2021/01/29 12:22:26;;;;;;;19.50;12.97;;;5.10;99.90;;;;;;4975618;28;20187;-89
2021/01/29 12:25:14;;;;;;;20.40;12.30;;;5.10;99.90;;;;;;4975822;28;20215;-89
2021/01/29 12:27:50;;;;;;;28.00;13.63;;;5.10;99.90;;;;;;4993964;23;20239;-90
2021/01/29 12:30:28;;;;;;;22.80;12.53;;;5.10;99.90;;;;;;4978403;28;20199;-90
2021/01/29 12:33:07;;;;;;;20.03;13.60;;;5.10;99.90;;;;;;4987259;28;20197;-91
2021/01/29 12:35:49;;;;;;;24.17;14.67;;;5.10;99.90;;;;;;4980028;28;20191;-90
2021/01/29 12:38:28;;;;;;;23.03;15.17;;;5.20;99.90;;;;;;4995731;28;20226;-90
2021/01/29 12:41:09;;;;;;;23.77;14.13;;;5.20;99.90;;;;;;4977324;28;20199;-88
2021/01/29 12:44:06;;;;;;;22.77;13.63;;;5.20;99.90;;;;;;4966030;28;20264;-88
2021/01/29 12:46:43;;;;;;;23.93;13.90;;;5.20;99.90;;;;;;4979000;28;20672;-89
2021/01/29 12:49:20;;;;;;;23.57;14.03;;;5.20;99.90;;;;;;4977622;28;20261;-89
2021/01/29 12:51:56;;;;;;;21.80;13.20;;;5.20;99.90;;;;;;4951322;29;20238;-89
2021/01/29 12:54:34;;;;;;;25.17;14.17;;;5.20;99.90;;;;;;4959017;29;20324;-90
2021/01/29 12:57:13;;;;;;;23.40;13.00;;;5.20;99.90;;;;;;4941823;29;20238;-89
2021/01/29 12:59:54;;;;;;;21.93;12.87;;;5.20;99.90;;;;;;4962517;28;20199;-91
2021/01/29 13:02:55;;;;;;;41.67;12.57;;;5.20;99.90;;;;;;4961323;28;20301;-90
2021/01/29 13:05:41;;;;;;;27.17;12.33;;;5.10;99.90;;;;;;4978384;28;20206;-88
2021/01/29 13:08:26;;;;;;;26.00;12.43;;;5.00;99.90;;;;;;4977616;28;20253;-90
2021/01/29 13:11:05;;;;;;;74.33;14.77;;;4.90;99.90;;;;;;4977620;28;20211;-89
2021/01/29 13:13:44;;;;;;;25.67;13.60;;;4.80;99.90;;;;;;4977710;28;20286;-88
2021/01/29 13:16:22;;;;;;;92.10;16.83;;;4.90;99.90;;;;;;4963036;28;20207;-88
2021/01/29 13:19:05;;;;;;;33.27;13.73;;;4.90;99.90;;;;;;4962998;28;20215;-88
2021/01/29 13:21:51;;;;;;;45.77;14.43;;;4.90;99.90;;;;;;4956151;29;20246;-88
2021/01/29 13:24:27;;;;;;;102.83;16.20;;;5.00;99.90;;;;;;4941391;29;20211;-89
2021/01/29 13:27:01;;;;;;;203.17;18.30;;;5.00;99.90;;;;;;4940775;29;20267;-88
2021/01/29 13:29:34;;;;;;;196.97;17.73;;;5.00;99.90;;;;;;4955142;28;20221;-89
2021/01/29 13:32:18;;;;;;;221.50;22.63;;;4.90;99.90;;;;;;4957566;28;20218;-89
2021/01/29 13:34:50;;;;;;;75.00;15.80;;;5.00;99.90;;;;;;4976421;28;20326;-89
2021/01/29 13:37:25;;;;;;;101.77;15.93;;;5.00;99.90;;;;;;4977999;28;20239;-89
2021/01/29 13:40:07;;;;;;;139.87;17.83;;;5.10;99.90;;;;;;4978354;28;20230;-89
2021/01/29 13:42:40;;;;;;;268.80;20.43;;;5.00;99.90;;;;;;4976007;28;20290;-88
2021/01/29 13:45:16;;;;;;;214.20;19.53;;;5.00;99.90;;;;;;4966285;28;20235;-88
2021/01/29 13:47:50;;;;;;;131.20;16.30;;;5.00;99.90;;;;;;4961945;28;20255;-89
2021/01/29 13:50:25;;;;;;;141.53;16.43;;;5.00;99.90;;;;;;4974878;28;20266;-89
2021/01/29 13:52:58;;;;;;;78.13;14.23;;;5.00;99.90;;;;;;4971842;28;20214;-90
2021/01/29 13:55:34;;;;;;;88.53;14.13;;;5.00;99.90;;;;;;4964280;28;20215;-90
2021/01/29 13:58:10;;;;;;;50.80;13.53;;;5.00;99.90;;;;;;4957332;28;20624;-90
2021/01/29 14:00:47;;;;;;;45.83;13.10;;;5.00;99.90;;;;;;4966855;28;20602;-90
2021/01/29 14:03:23;;;;;;;61.07;12.77;;;5.00;99.90;;;;;;4962924;28;20282;-89
2021/01/29 14:05:54;;;;;;;71.87;14.07;;;5.00;99.90;;;;;;4956031;29;20259;-90
2021/01/29 14:08:24;;;;;;;41.67;12.77;;;5.00;99.90;;;;;;4958293;28;20551;-90
2021/01/29 14:11:19;;;;;;;45.23;12.47;;;5.00;99.90;;;;;;4955337;28;20196;-89
2021/01/29 14:14:03;;;;;;;41.77;13.03;;;5.00;99.90;;;;;;4940858;29;20211;-89
2021/01/29 14:16:40;;;;;;;32.83;13.20;;;5.00;99.90;;;;;;4941633;29;20298;-89
2021/01/29 14:19:36;;;;;;;22.23;12.40;;;5.00;99.90;;;;;;4957043;28;20203;-89
2021/01/29 14:22:14;;;;;;;20.73;11.03;;;5.00;99.90;;;;;;4956492;29;20222;-89